createdAt,value
2022-08-26T00:04:13.158Z,0
2022-08-26T00:09:13.407Z,0
2022-08-26T00:14:13.151Z,0
2022-08-26T00:24:28.814Z,0
2022-08-26T00:29:13.237Z,0
2022-08-26T00:34:13.075Z,0
2022-08-26T00:39:13.072Z,0
2022-08-26T00:44:13.075Z,0
2022-08-26T00:49:13.042Z,0
2022-08-26T00:54:13.083Z,0
2022-08-26T00:59:13.119Z,0
2022-08-26T01:04:13.085Z,0
2022-08-26T01:09:13.103Z,0
2022-08-26T01:14:13.115Z,0
2022-08-26T01:19:13.134Z,0
2022-08-26T01:24:14.003Z,0
2022-08-26T01:29:13.095Z,0
2022-08-26T01:34:13.126Z,0
2022-08-26T01:39:13.106Z,0
2022-08-26T01:44:13.115Z,0
2022-08-26T01:49:13.180Z,0
2022-08-26T01:54:13.809Z,0
2022-08-26T01:59:13.122Z,0
2022-08-26T02:04:13.197Z,0
2022-08-26T02:09:13.239Z,0
2022-08-26T02:14:13.131Z,0
2022-08-26T02:19:16.923Z,0
2022-08-26T02:24:13.128Z,0
2022-08-26T02:29:13.130Z,0
2022-08-26T02:34:13.138Z,0
2022-08-26T02:39:16.947Z,0
2022-08-26T02:44:13.139Z,0
2022-08-26T02:49:13.132Z,0
2022-08-26T02:54:13.184Z,0
2022-08-26T02:59:13.526Z,0
2022-08-26T03:04:13.167Z,0
2022-08-26T03:09:13.975Z,0
2022-08-26T03:14:13.124Z,0
2022-08-26T03:19:13.128Z,0
2022-08-26T03:24:13.092Z,0
2022-08-26T03:29:13.169Z,0
2022-08-26T03:34:13.714Z,0
2022-08-26T03:39:13.173Z,0
2022-08-26T03:44:13.218Z,0
2022-08-26T03:49:14.590Z,0
2022-08-26T03:54:13.155Z,0
2022-08-26T03:59:18.722Z,256
2022-08-26T04:04:15.587Z,0
2022-08-26T04:09:13.169Z,256
2022-08-26T04:14:17.551Z,257
2022-08-26T04:19:13.129Z,258
2022-08-26T04:24:13.182Z,261
2022-08-26T04:29:13.138Z,265
2022-08-26T04:34:14.027Z,271
2022-08-26T04:39:13.279Z,277
2022-08-26T04:44:13.182Z,286
2022-08-26T04:49:14.607Z,295
2022-08-26T04:54:13.162Z,306
2022-08-26T04:59:19.258Z,316
2022-08-26T05:04:13.227Z,328
2022-08-26T05:09:13.149Z,343
2022-08-26T05:14:13.231Z,352
2022-08-26T05:19:13.193Z,362
2022-08-26T05:24:13.201Z,373
2022-08-26T05:29:13.186Z,384
2022-08-26T05:34:13.219Z,396
2022-08-26T05:39:13.196Z,414
2022-08-26T05:44:13.179Z,420
2022-08-26T05:49:13.474Z,432
2022-08-26T05:54:13.218Z,447
2022-08-26T05:59:24.870Z,450
2022-08-26T06:04:13.193Z,455
2022-08-26T06:09:13.168Z,462
2022-08-26T06:14:13.188Z,475
2022-08-26T06:19:13.205Z,495
2022-08-26T06:24:13.200Z,531
2022-08-26T06:29:13.185Z,546
2022-08-26T06:34:13.234Z,552
2022-08-26T06:39:13.199Z,576
2022-08-26T06:44:13.201Z,617
2022-08-26T06:49:13.227Z,654
2022-08-26T06:54:13.257Z,643
2022-08-26T06:59:16.764Z,601
2022-08-26T07:04:13.259Z,669
2022-08-26T07:09:13.190Z,712
2022-08-26T07:14:13.229Z,743
2022-08-26T07:19:15.236Z,804
2022-08-26T07:24:13.236Z,953
2022-08-26T07:29:13.226Z,1099
2022-08-26T07:34:13.252Z,1127
2022-08-26T07:39:13.217Z,1078
2022-08-26T07:44:13.206Z,1225
2022-08-26T07:49:13.400Z,1307
2022-08-26T07:54:13.481Z,1410
2022-08-26T07:59:18.949Z,1488
2022-08-26T08:04:13.236Z,1557
2022-08-26T08:09:13.236Z,1878
2022-08-26T08:14:13.341Z,1932
2022-08-26T08:19:13.695Z,2054
2022-08-26T08:24:13.217Z,2064
2022-08-26T08:29:13.222Z,2031
2022-08-26T08:34:13.243Z,2116
2022-08-26T08:39:13.249Z,2360
2022-08-26T08:44:13.278Z,8681
2022-08-26T08:49:13.269Z,6064
2022-08-26T08:54:13.241Z,9648
2022-08-26T08:59:15.391Z,2757
2022-08-26T09:04:13.255Z,2745
2022-08-26T09:09:13.243Z,3227
2022-08-26T09:14:13.296Z,3280
2022-08-26T09:19:13.472Z,12773
2022-08-26T09:24:13.842Z,11974
2022-08-26T09:29:13.281Z,12087
2022-08-26T09:34:13.291Z,14184
2022-08-26T09:39:13.222Z,14667
2022-08-26T09:44:14.489Z,11355
2022-08-26T09:49:13.231Z,8595
2022-08-26T09:54:13.230Z,7808
2022-08-26T09:59:18.879Z,11471
2022-08-26T10:04:13.590Z,12738
2022-08-26T10:09:13.241Z,11566
2022-08-26T10:21:09.970Z,12556
2022-08-26T10:24:13.315Z,14053
2022-08-26T10:29:13.329Z,2576
2022-08-26T10:34:14.028Z,13257
2022-08-26T10:39:13.268Z,12523
2022-08-26T10:44:13.297Z,10725
2022-08-26T10:49:13.294Z,11057
2022-08-26T10:54:13.552Z,9647
2022-08-26T10:59:13.362Z,3270
2022-08-26T11:04:13.265Z,2000
2022-08-26T11:09:13.297Z,1173
2022-08-26T11:14:13.291Z,804
2022-08-26T11:19:13.289Z,881
2022-08-26T11:24:13.290Z,982
2022-08-26T11:29:13.879Z,1009
2022-08-26T11:34:13.337Z,1001
2022-08-26T11:44:13.309Z,1001
2022-08-26T11:49:13.329Z,1039
2022-08-26T11:54:13.312Z,1085
2022-08-26T11:59:13.310Z,1150
2022-08-26T12:04:13.428Z,1222
2022-08-26T12:09:13.303Z,1261
2022-08-26T12:14:13.318Z,1304
2022-08-26T12:19:13.420Z,1354
2022-08-26T12:24:13.328Z,1397
2022-08-26T12:29:20.423Z,1414
2022-08-26T12:34:17.786Z,1450
2022-08-26T12:39:13.457Z,1506
2022-08-26T12:44:13.348Z,1406
2022-08-26T12:49:13.347Z,1385
2022-08-26T12:54:13.423Z,1396
2022-08-26T12:59:13.503Z,1504
2022-08-26T13:04:13.370Z,1373
2022-08-26T13:09:13.340Z,1394
2022-08-26T13:14:15.545Z,1366
2022-08-26T13:19:13.355Z,1331
2022-08-26T13:24:13.345Z,1206
2022-08-26T13:29:13.432Z,1164
2022-08-26T13:34:13.319Z,1257
2022-08-26T13:39:13.356Z,1318
2022-08-26T13:44:13.462Z,1349
2022-08-26T13:49:13.385Z,1365
2022-08-26T13:54:13.459Z,1214
2022-08-26T13:59:14.379Z,1098
2022-08-26T14:04:15.115Z,1001
2022-08-26T14:09:13.697Z,661
2022-08-26T14:14:13.369Z,438
2022-08-26T14:19:13.363Z,417
2022-08-26T14:24:13.456Z,454
2022-08-26T14:29:14.649Z,382
2022-08-26T14:34:13.385Z,310
2022-08-26T14:39:13.504Z,308
2022-08-26T14:44:13.423Z,311
2022-08-26T14:49:13.465Z,307
2022-08-26T14:54:13.340Z,300
2022-08-26T14:59:13.377Z,309
2022-08-26T15:04:13.731Z,301
2022-08-26T15:09:13.562Z,288
2022-08-26T15:14:14.850Z,279
2022-08-26T15:19:13.663Z,274
2022-08-26T15:24:13.647Z,270
2022-08-26T15:29:13.398Z,267
2022-08-26T15:34:16.296Z,267
2022-08-26T15:39:13.511Z,265
2022-08-26T15:44:13.434Z,265
2022-08-26T15:49:17.736Z,264
2022-08-26T15:54:13.513Z,263
2022-08-26T15:59:13.416Z,262
2022-08-26T16:04:13.454Z,261
2022-08-26T16:09:13.422Z,261
2022-08-26T16:14:13.424Z,262
2022-08-26T16:19:23.287Z,261
2022-08-26T16:24:13.600Z,261
2022-08-26T16:29:13.423Z,261
2022-08-26T16:34:13.597Z,260
2022-08-26T16:39:13.459Z,261
2022-08-26T16:44:13.478Z,262
2022-08-26T16:49:13.512Z,261
2022-08-26T16:54:13.548Z,261
2022-08-26T16:59:13.638Z,262
2022-08-26T17:04:14.037Z,263
2022-08-26T17:09:13.470Z,263
2022-08-26T17:14:13.492Z,266
2022-08-26T17:19:13.877Z,268
2022-08-26T17:24:13.417Z,268
2022-08-26T17:29:13.405Z,270
2022-08-26T17:34:13.434Z,268
2022-08-26T17:39:14.035Z,266
2022-08-26T17:44:13.467Z,264
2022-08-26T17:49:13.424Z,263
2022-08-26T17:54:13.509Z,261
2022-08-26T17:59:13.452Z,258
2022-08-26T18:04:13.468Z,256
2022-08-26T18:09:13.483Z,0
2022-08-26T18:14:13.468Z,0
2022-08-26T18:19:13.575Z,0
2022-08-26T18:24:14.123Z,0
2022-08-26T18:29:13.484Z,0
2022-08-26T18:34:15.665Z,0
2022-08-26T18:39:13.610Z,0
2022-08-26T18:44:13.915Z,0
2022-08-26T18:49:13.510Z,0
2022-08-26T18:54:13.653Z,0
2022-08-26T18:59:14.978Z,0
2022-08-26T19:04:14.148Z,0
2022-08-26T19:09:14.187Z,0
2022-08-26T19:14:13.456Z,0
2022-08-26T19:19:13.744Z,0
2022-08-26T19:24:13.492Z,0
2022-08-26T19:29:13.558Z,0
2022-08-26T19:34:13.520Z,0
2022-08-26T19:39:13.522Z,0
2022-08-26T19:44:13.579Z,0
2022-08-26T19:49:13.465Z,0
2022-08-26T19:54:13.516Z,0
2022-08-26T19:59:13.538Z,0
2022-08-26T20:04:13.549Z,0
2022-08-26T20:09:13.505Z,0
2022-08-26T20:14:13.489Z,0
2022-08-26T20:19:13.467Z,0
2022-08-26T20:24:14.839Z,0
2022-08-26T20:29:13.560Z,0
2022-08-26T20:34:13.548Z,0
2022-08-26T20:39:13.487Z,0
2022-08-26T20:44:13.486Z,0
2022-08-26T20:49:13.687Z,0
2022-08-26T20:54:13.475Z,0
2022-08-26T20:59:13.484Z,0
2022-08-26T21:04:13.487Z,0
2022-08-26T21:09:13.582Z,0
2022-08-26T21:14:16.344Z,0
2022-08-26T21:19:13.495Z,0
2022-08-26T21:24:13.532Z,0
2022-08-26T21:29:13.601Z,0
2022-08-26T21:34:13.548Z,0
2022-08-26T21:39:13.569Z,0
2022-08-26T21:44:13.600Z,0
2022-08-26T21:49:13.544Z,0
2022-08-26T21:54:13.528Z,0
2022-08-26T21:59:13.590Z,0
2022-08-26T22:04:13.569Z,0
2022-08-26T22:09:13.501Z,0
2022-08-26T22:14:13.568Z,0
2022-08-26T22:24:13.588Z,0
2022-08-26T22:29:13.525Z,0
2022-08-26T22:34:13.533Z,0
2022-08-26T22:39:14.069Z,0
2022-08-26T22:44:13.512Z,0
2022-08-26T22:49:13.845Z,0
2022-08-26T22:54:13.535Z,0
2022-08-26T22:59:13.668Z,0
2022-08-26T23:04:13.528Z,0
2022-08-26T23:09:13.545Z,0
2022-08-26T23:14:13.604Z,0
2022-08-26T23:19:13.554Z,0
2022-08-26T23:24:13.615Z,0
2022-08-26T23:29:13.590Z,0
2022-08-26T23:34:14.739Z,0
2022-08-26T23:39:13.595Z,0
2022-08-26T23:44:13.552Z,0
2022-08-26T23:49:13.637Z,0
2022-08-26T23:54:13.590Z,0
2022-08-26T23:59:15.043Z,0
